首页
METAR-TAF:

METAR-TAF

机场 :

LaGrange-Callaway Airport

拉格兰奇, 喬治亞, 美国

纬度: 33-00-32N, 经度: 085-04-21W, 海拔: 211米

当前天气观测

该预报发布于31分钟前的22:55 UTC
静风
温度 20°C
湿度 94%
气压 1018 hPa
能見度: 16.1公里
散云层高于6000英尺
多云层高于8500英尺
阴天层高于11000英尺
小雨

METAR: KLGC 132255Z AUTO 00000KT 10SM -RA SCT060 BKN085 OVC110 20/19 A3007 RMK AO2 T01990185

时间: 19:26 (23:26 UTC)


TAF: 丢失

超过4000个机场的气象观测和天气预报(METAR&TAF报告)。

可查询的气象台以黄色和红色小点在地图上表示。

将鼠标移到小点上方,可查看气象台名称。

然后点击查看天气观测和预报。

如需切换地图:点击带黑十字的绿色按钮放大地图;点击带横线的绿色按钮缩小地图;或者点击绿色箭头查看邻近地区的地图。


METAR-TAF: